Date,TemperatureHighF,TemperatureAvgF,TemperatureLowF,DewpointHighF,DewpointAvgF,DewpointLowF,HumidityHigh,HumidityAvg,HumidityLow,PressureMaxIn,PressureMinIn,WindSpeedMaxMPH,WindSpeedAvgMPH,GustSpeedMaxMPH,PrecipitationSumIn
2013-2-1,49.3,43.4,39.7,47.0,41.6,38.0,98,93,80,30.24,29.44,17,2,26,0.73
2013-2-2,49.1,39.1,33.2,47.0,33.9,27.0,92,82,58,29.81,29.35,25,12,34,0.22
2013-2-3,39.4,34.7,32.0,28.0,25.6,21.0,79,69,59,30.30,29.82,27,10,28,0.00
2013-2-4,38.1,34.3,30.8,36.0,31.8,26.0,94,90,79,30.28,30.19,5,0,5,0.09
2013-2-5,47.6,39.4,33.6,41.0,36.3,32.0,96,89,61,30.18,29.68,12,3,26,0.36
2013-2-6,33.8,32.0,30.5,32.0,30.3,28.0,97,93,85,29.76,29.54,14,3,21,0.17
2013-2-7,35.0,31.0,27.3,29.0,26.3,22.0,92,82,71,30.01,29.73,11,4,21,0.02
2013-2-8,36.8,28.8,23.4,29.0,23.8,21.0,94,82,57,30.05,29.93,10,3,14,0.00
2013-2-9,35.2,28.7,23.5,26.0,21.8,18.0,92,77,55,30.10,30.02,6,1,8,0.00
2013-2-10,31.0,25.5,19.2,27.0,21.0,16.0,92,83,66,30.03,29.62,7,1,8,0.27
2013-2-11,35.7,30.8,27.4,33.0,29.1,26.0,95,93,88,29.62,29.49,6,0,9,0.72
2013-2-12,36.2,33.7,31.8,34.0,31.7,30.0,94,92,83,29.92,29.55,13,1,16,0.09
2013-2-13,34.0,31.1,27.6,31.0,26.2,22.0,93,82,68,30.20,29.92,13,6,15,0.00
2013-2-14,32.7,27.8,22.1,27.0,22.6,19.0,92,81,71,30.22,30.09,9,2,13,0.02
2013-2-15,42.7,35.5,28.7,36.0,32.0,27.0,94,87,76,30.19,30.03,12,2,12,0.06
2013-2-16,40.8,34.6,29.1,33.0,30.7,27.0,95,86,71,30.22,30.15,13,3,15,0.00
2013-2-17,39.4,34.4,29.9,31.0,28.8,27.0,92,80,68,30.15,30.03,15,5,19,0.00
2013-2-18,41.8,34.0,29.3,30.0,27.8,26.0,89,78,63,30.09,30.02,11,3,14,0.00
2013-2-19,44.1,33.7,26.0,29.0,26.4,23.0,90,75,53,30.10,29.98,5,1,8,0.00
2013-2-20,43.8,35.7,29.4,32.0,28.6,25.0,85,76,63,29.98,29.91,18,5,23,0.00
2013-2-21,33.3,30.4,27.3,27.0,24.4,20.0,83,78,72,29.93,29.76,14,6,20,0.00
2013-2-22,31.8,27.5,24.6,23.0,20.9,17.0,82,76,70,29.76,29.65,14,6,18,0.00
2013-2-23,30.0,25.6,23.4,21.0,18.5,16.0,84,75,63,29.80,29.62,13,7,20,0.00
2013-2-24,28.0,25.3,22.9,22.0,18.5,15.0,87,76,65,29.96,29.80,14,8,19,0.00
2013-2-25,34.8,27.6,22.7,23.0,20.5,18.0,86,75,58,30.15,29.96,12,4,14,0.00
2013-2-26,34.8,28.6,21.3,28.0,22.8,18.0,89,79,70,30.29,30.15,17,5,23,0.00
2013-2-27,39.3,31.2,25.1,29.0,26.0,22.0,90,81,68,30.31,30.25,14,2,16,0.00
2013-2-28,47.0,35.1,25.8,34.0,28.9,24.0,93,79,57,30.27,30.15,11,2,11,0.00